Airfield :
LOGIN :

Register | Disclaimer

   EN    FR    IT 

 










Legend :    VFR   Marginal VFR   IFR   Intensive IFR   Very Intensive IFR
Visi :
Ceiling :
>= 8 km
>= 3000ft
5 to 8 km
1000 to 3000 ft
1500m to 5 km
500 to 1000 ft
800 to 1500m
200 to 500 ft
< 800m
< 200 ft
Symbols :   Thunderstorms  Fog  Heavy snow  Heavy precipitations  Wind > 20 kt
SIGMETs :     Misc.  Thunderstorms  Icing  Turbulence  Mountain Waves  Volcanic Ashes






- Airport Elevation : 458 ft


LFSI - St-Dizier

CURRENT METAR :
  • 151700Z AUTO 01006KT CAVOK M00/M04 Q1028

EXPIRED METARs :
  • 151630Z AUTO 02006KT CAVOK M00/M04 Q1028
  • 151600Z AUTO 03010KT CAVOK 01/M04 Q1027
  • 151530Z AUTO 03011KT CAVOK 01/M04 Q1027
  • 151500Z AUTO 02010KT CAVOK 02/M04 Q1026
  • 151430Z AUTO 03011KT 9999 FEW031 03/M04 Q1026

TAF TAF LFSI
Valid from the 15 at 15:00 until the 16 at 15:00 UTC


151400Z 1515/1615 03012KT CAVOK
PROB30
TEMPO 1522/1609 3000 BR BKN005



MET'MAP, your aeronautical weather chart ! - Copyright ORBIFLY December 2007 - Disclaimer

ORBIFLY MET'MAP TEAM :

Programming & Development : Alexandra Zaïnal
Concept & original design : Baudouin d'Aumeries
Assistance for programming : Marc-Olivier Méhu
Technical & hardware support : Manuel Goepfert

Contact : metmap@orbifly.com




SOURCES & CREDITS :

   NOAA